EJU66X EHAM-EGKK
Flight info
| Callsign | EJU66X |
|---|---|
| Flight time | 0h 48m |
| Altitude | 24000 |
| Route | IDRID L980 ABNED Z344 AMRIV Q63 ARREK Y4 TEBRA |
| Aircraft | A20N/M-SDE2E3FGHIJ1RWXYZ/LB1G1 |
Departure
| Time | 2026-05-04 17:07 |
|---|---|
| Airport | Amsterdam Airport Schiphol (EHAM) |
Arrival
| Time | 2026-05-04 17:55 |
|---|---|
| Airport | London Gatwick Airport (EGKK) |
| Time | Latitude | Longitude | Altitude | Speed | Heading |
|---|---|---|---|---|---|
| 2026-05-04 16:31 | 52.31027 | 4.75459 | -3 ft | 0 kts | 149° |
| 2026-05-04 16:51 | 52.31048 | 4.75434 | -3 ft | 2 kts | 133° |
| 2026-05-04 16:52 | 52.31058 | 4.75386 | -3 ft | 2 kts | 68° |
| 2026-05-04 16:52 | 52.31053 | 4.75367 | -3 ft | 1 kts | 56° |
| 2026-05-04 16:53 | 52.31051 | 4.75364 | -3 ft | 0 kts | 55° |
| 2026-05-04 16:55 | 52.31075 | 4.75420 | -3 ft | 6 kts | 55° |
| 2026-05-04 16:55 | 52.31181 | 4.75494 | -3 ft | 12 kts | 358° |
| 2026-05-04 16:56 | 52.31379 | 4.75474 | -3 ft | 17 kts | 356° |
| 2026-05-04 16:56 | 52.31399 | 4.75472 | -3 ft | 0 kts | 357° |
| 2026-05-04 16:57 | 52.31410 | 4.75471 | -3 ft | 7 kts | 357° |
| 2026-05-04 16:58 | 52.31506 | 4.75192 | -4 ft | 16 kts | 263° |
| 2026-05-04 16:58 | 52.31498 | 4.75004 | -3 ft | 18 kts | 266° |
| 2026-05-04 16:59 | 52.31483 | 4.74566 | -3 ft | 21 kts | 266° |
| 2026-05-04 17:00 | 52.31480 | 4.74485 | -3 ft | 21 kts | 266° |
| 2026-05-04 17:00 | 52.32039 | 4.73986 | -4 ft | 19 kts | 271° |
| 2026-05-04 17:01 | 52.32053 | 4.73616 | -3 ft | 21 kts | 274° |
| 2026-05-04 17:02 | 52.32195 | 4.73205 | -3 ft | 19 kts | 318° |
| 2026-05-04 17:02 | 52.32412 | 4.72895 | -3 ft | 22 kts | 319° |
| 2026-05-04 17:03 | 52.32536 | 4.72721 | -3 ft | 24 kts | 320° |
| 2026-05-04 17:03 | 52.32658 | 4.72555 | -3 ft | 23 kts | 318° |
| 2026-05-04 17:03 | 52.32885 | 4.72140 | -3 ft | 26 kts | 314° |
| 2026-05-04 17:04 | 52.33121 | 4.71701 | -3 ft | 22 kts | 310° |
| 2026-05-04 17:04 | 52.33007 | 4.71309 | -4 ft | 23 kts | 224° |
| 2026-05-04 17:05 | 52.32868 | 4.70959 | -4 ft | 0 kts | 280° |
| 2026-05-04 17:05 | 52.32893 | 4.70892 | -4 ft | 8 kts | 336° |
| 2026-05-04 17:06 | 52.33463 | 4.70936 | -4 ft | 110 kts | 3° |
| 2026-05-04 17:06 | 52.34456 | 4.71030 | 18 ft | 171 kts | 2° |
| 2026-05-04 17:07 | 52.37140 | 4.71281 | 1153 ft | 209 kts | 2° |
| 2026-05-04 17:07 | 52.37615 | 4.71324 | 1388 ft | 214 kts | 2° |
| 2026-05-04 17:07 | 52.40274 | 4.71625 | 2588 ft | 241 kts | 3° |
| 2026-05-04 17:07 | 52.41996 | 4.71829 | 3354 ft | 255 kts | 2° |
| 2026-05-04 17:08 | 52.43786 | 4.72020 | 4135 ft | 267 kts | 2° |
| 2026-05-04 17:08 | 52.47539 | 4.71666 | 6063 ft | 269 kts | 335° |
| 2026-05-04 17:08 | 52.49044 | 4.69886 | 7028 ft | 270 kts | 309° |
| 2026-05-04 17:09 | 52.49900 | 4.67158 | 7915 ft | 273 kts | 282° |
| 2026-05-04 17:09 | 52.49905 | 4.64052 | 8795 ft | 277 kts | 256° |
| 2026-05-04 17:09 | 52.49071 | 4.61197 | 9663 ft | 281 kts | 236° |
| 2026-05-04 17:10 | 52.46864 | 4.55584 | 10800 ft | 313 kts | 235° |
| 2026-05-04 17:10 | 52.41782 | 4.47883 | 12671 ft | 342 kts | 231° |
| 2026-05-04 17:11 | 52.40482 | 4.44548 | 13440 ft | 346 kts | 242° |
| 2026-05-04 17:11 | 52.39416 | 4.40996 | 14199 ft | 350 kts | 245° |
| 2026-05-04 17:11 | 52.37293 | 4.33796 | 15636 ft | 357 kts | 243° |
| 2026-05-04 17:12 | 52.36154 | 4.30155 | 16323 ft | 361 kts | 243° |
| 2026-05-04 17:12 | 52.33778 | 4.22815 | 17647 ft | 369 kts | 242° |
| 2026-05-04 17:13 | 52.30222 | 4.13071 | 19305 ft | 379 kts | 232° |
| 2026-05-04 17:14 | 52.25280 | 4.02769 | 21063 ft | 389 kts | 232° |
| 2026-05-04 17:14 | 52.23608 | 3.99274 | 21631 ft | 393 kts | 232° |
| 2026-05-04 17:14 | 52.20217 | 3.92197 | 22694 ft | 399 kts | 232° |
| 2026-05-04 17:15 | 52.18498 | 3.88618 | 23212 ft | 402 kts | 232° |
| 2026-05-04 17:15 | 52.15017 | 3.81384 | 23939 ft | 408 kts | 232° |
| 2026-05-04 17:16 | 52.11506 | 3.74113 | 24000 ft | 408 kts | 232° |
| 2026-05-04 17:16 | 52.06231 | 3.63225 | 24000 ft | 408 kts | 232° |
| 2026-05-04 17:17 | 52.04470 | 3.59599 | 24000 ft | 408 kts | 232° |
| 2026-05-04 17:17 | 51.99210 | 3.48801 | 24000 ft | 408 kts | 232° |
| 2026-05-04 17:18 | 51.97501 | 3.45124 | 24000 ft | 408 kts | 234° |
| 2026-05-04 17:18 | 51.94177 | 3.37662 | 24000 ft | 408 kts | 234° |
| 2026-05-04 17:19 | 51.90839 | 3.30226 | 24000 ft | 408 kts | 234° |
| 2026-05-04 17:19 | 51.87478 | 3.22816 | 24000 ft | 408 kts | 234° |
| 2026-05-04 17:20 | 51.84288 | 3.15251 | 24000 ft | 408 kts | 242° |
| 2026-05-04 17:20 | 51.81719 | 3.07073 | 24000 ft | 408 kts | 243° |
| 2026-05-04 17:20 | 51.80433 | 3.02991 | 24000 ft | 408 kts | 243° |
| 2026-05-04 17:21 | 51.77850 | 2.94839 | 24000 ft | 408 kts | 243° |
| 2026-05-04 17:21 | 51.75261 | 2.86703 | 24000 ft | 408 kts | 243° |
| 2026-05-04 17:22 | 51.73975 | 2.82670 | 24000 ft | 408 kts | 243° |
| 2026-05-04 17:22 | 51.72672 | 2.78593 | 24000 ft | 408 kts | 243° |
| 2026-05-04 17:23 | 51.69080 | 2.66197 | 24000 ft | 407 kts | 253° |
| 2026-05-04 17:23 | 51.68408 | 2.61766 | 24000 ft | 407 kts | 260° |
| 2026-05-04 17:23 | 51.67610 | 2.52766 | 24000 ft | 407 kts | 262° |
| 2026-05-04 17:24 | 51.67206 | 2.48248 | 24000 ft | 407 kts | 262° |
| 2026-05-04 17:24 | 51.65967 | 2.34721 | 24000 ft | 407 kts | 262° |
| 2026-05-04 17:25 | 51.65550 | 2.30212 | 24000 ft | 407 kts | 262° |
| 2026-05-04 17:25 | 51.64711 | 2.21190 | 24000 ft | 407 kts | 262° |
| 2026-05-04 17:26 | 51.63865 | 2.12179 | 24000 ft | 407 kts | 261° |
| 2026-05-04 17:26 | 51.62610 | 1.98664 | 24000 ft | 407 kts | 262° |
| 2026-05-04 17:27 | 51.61773 | 1.89662 | 24000 ft | 407 kts | 261° |
| 2026-05-04 17:27 | 51.59760 | 1.81210 | 24001 ft | 408 kts | 237° |
| 2026-05-04 17:28 | 51.56108 | 1.74260 | 23730 ft | 405 kts | 229° |
| 2026-05-04 17:29 | 51.50597 | 1.64197 | 22121 ft | 396 kts | 232° |
| 2026-05-04 17:29 | 51.46925 | 1.52679 | 20417 ft | 385 kts | 250° |
| 2026-05-04 17:30 | 51.44134 | 1.40791 | 18722 ft | 375 kts | 243° |
| 2026-05-04 17:31 | 51.40884 | 1.34417 | 17602 ft | 370 kts | 218° |
| 2026-05-04 17:31 | 51.34732 | 1.27171 | 15960 ft | 361 kts | 217° |
| 2026-05-04 17:32 | 51.30722 | 1.22436 | 14900 ft | 356 kts | 217° |
| 2026-05-04 17:33 | 51.24813 | 1.15476 | 13321 ft | 348 kts | 217° |
| 2026-05-04 17:33 | 51.22873 | 1.13196 | 12802 ft | 345 kts | 217° |
| 2026-05-04 17:34 | 51.17146 | 1.06482 | 11260 ft | 338 kts | 217° |
| 2026-05-04 17:34 | 51.15258 | 1.04272 | 10754 ft | 335 kts | 217° |
| 2026-05-04 17:35 | 51.09878 | 0.97991 | 10169 ft | 300 kts | 217° |
| 2026-05-04 17:35 | 51.06669 | 0.94176 | 9692 ft | 284 kts | 223° |
| 2026-05-04 17:35 | 51.05383 | 0.91811 | 9288 ft | 281 kts | 238° |
| 2026-05-04 17:36 | 51.04487 | 0.89066 | 8890 ft | 280 kts | 246° |
| 2026-05-04 17:36 | 51.03673 | 0.86272 | 8504 ft | 278 kts | 245° |
| 2026-05-04 17:36 | 51.02848 | 0.83485 | 8120 ft | 276 kts | 245° |
| 2026-05-04 17:36 | 51.02039 | 0.80771 | 7741 ft | 275 kts | 245° |
| 2026-05-04 17:37 | 51.01223 | 0.78041 | 7404 ft | 272 kts | 245° |
| 2026-05-04 17:37 | 51.00412 | 0.75335 | 7302 ft | 274 kts | 245° |
| 2026-05-04 17:37 | 50.99591 | 0.72597 | 7229 ft | 274 kts | 245° |
| 2026-05-04 17:37 | 50.98773 | 0.69871 | 7145 ft | 272 kts | 245° |
| 2026-05-04 17:38 | 50.97960 | 0.67163 | 7083 ft | 272 kts | 245° |
| 2026-05-04 17:38 | 50.97141 | 0.64439 | 7022 ft | 272 kts | 245° |
| 2026-05-04 17:38 | 50.96324 | 0.61727 | 7002 ft | 272 kts | 245° |
| 2026-05-04 17:38 | 50.95516 | 0.59049 | 7001 ft | 272 kts | 245° |
| 2026-05-04 17:39 | 50.93874 | 0.53614 | 7000 ft | 272 kts | 245° |
| 2026-05-04 17:39 | 50.93598 | 0.52700 | 7002 ft | 272 kts | 245° |
| 2026-05-04 17:40 | 50.92565 | 0.37015 | 7004 ft | 272 kts | 286° |
| 2026-05-04 17:41 | 50.93102 | 0.34135 | 6997 ft | 272 kts | 286° |
| 2026-05-04 17:41 | 50.93629 | 0.31284 | 7002 ft | 272 kts | 286° |
| 2026-05-04 17:41 | 50.94159 | 0.28403 | 6998 ft | 272 kts | 287° |
| 2026-05-04 17:41 | 50.94874 | 0.25696 | 6968 ft | 269 kts | 299° |
| 2026-05-04 17:42 | 50.95921 | 0.23291 | 6898 ft | 260 kts | 308° |
| 2026-05-04 17:42 | 50.97044 | 0.21120 | 6806 ft | 249 kts | 309° |
| 2026-05-04 17:42 | 50.98130 | 0.19021 | 6589 ft | 244 kts | 308° |
| 2026-05-04 17:42 | 50.99173 | 0.16939 | 6266 ft | 243 kts | 307° |
| 2026-05-04 17:43 | 51.00202 | 0.14822 | 5939 ft | 242 kts | 307° |
| 2026-05-04 17:43 | 51.01193 | 0.12682 | 5630 ft | 240 kts | 300° |
| 2026-05-04 17:43 | 51.01783 | 0.10225 | 5295 ft | 238 kts | 279° |
| 2026-05-04 17:43 | 51.01910 | 0.07602 | 4970 ft | 238 kts | 273° |
| 2026-05-04 17:44 | 51.02006 | 0.04988 | 4671 ft | 236 kts | 273° |
| 2026-05-04 17:44 | 51.02107 | 0.02410 | 4378 ft | 235 kts | 273° |
| 2026-05-04 17:44 | 51.02212 | -0.00164 | 4022 ft | 233 kts | 274° |
| 2026-05-04 17:44 | 51.02317 | -0.02728 | 3694 ft | 231 kts | 274° |
| 2026-05-04 17:45 | 51.02419 | -0.05223 | 3654 ft | 227 kts | 274° |
| 2026-05-04 17:45 | 51.02523 | -0.07755 | 3601 ft | 228 kts | 274° |
| 2026-05-04 17:45 | 51.02626 | -0.10243 | 3549 ft | 227 kts | 274° |
| 2026-05-04 17:45 | 51.02730 | -0.12749 | 3498 ft | 227 kts | 274° |
| 2026-05-04 17:46 | 51.02835 | -0.15256 | 3445 ft | 227 kts | 274° |
| 2026-05-04 17:46 | 51.02940 | -0.17756 | 3388 ft | 226 kts | 274° |
| 2026-05-04 17:46 | 51.03045 | -0.20253 | 3333 ft | 227 kts | 274° |
| 2026-05-04 17:46 | 51.03151 | -0.22745 | 3282 ft | 226 kts | 274° |
| 2026-05-04 17:47 | 51.03257 | -0.25243 | 3230 ft | 226 kts | 274° |
| 2026-05-04 17:47 | 51.03364 | -0.27737 | 3179 ft | 226 kts | 274° |
| 2026-05-04 17:47 | 51.03470 | -0.30198 | 3124 ft | 226 kts | 274° |
| 2026-05-04 17:47 | 51.03578 | -0.32693 | 3076 ft | 226 kts | 274° |
| 2026-05-04 17:48 | 51.03686 | -0.35185 | 3046 ft | 226 kts | 274° |
| 2026-05-04 17:48 | 51.03789 | -0.37672 | 3007 ft | 225 kts | 273° |
| 2026-05-04 17:48 | 51.03820 | -0.38510 | 3008 ft | 225 kts | 273° |
| 2026-05-04 17:49 | 51.04276 | -0.49847 | 3006 ft | 225 kts | 276° |
| 2026-05-04 17:49 | 51.05153 | -0.52691 | 3007 ft | 228 kts | 318° |
| 2026-05-04 17:50 | 51.06559 | -0.53802 | 3005 ft | 230 kts | 350° |
| 2026-05-04 17:50 | 51.07618 | -0.53782 | 3008 ft | 232 kts | 12° |
| 2026-05-04 17:50 | 51.09327 | -0.52203 | 3004 ft | 223 kts | 47° |
| 2026-05-04 17:50 | 51.10165 | -0.50265 | 3005 ft | 213 kts | 63° |
| 2026-05-04 17:51 | 51.10724 | -0.48059 | 3006 ft | 216 kts | 72° |
| 2026-05-04 17:51 | 51.10996 | -0.46526 | 3003 ft | 208 kts | 76° |
| 2026-05-04 17:51 | 51.11404 | -0.43716 | 3004 ft | 192 kts | 77° |
| 2026-05-04 17:51 | 51.11696 | -0.41614 | 2846 ft | 195 kts | 77° |
| 2026-05-04 17:52 | 51.11983 | -0.39531 | 2574 ft | 191 kts | 77° |
| 2026-05-04 17:52 | 51.12177 | -0.38133 | 2402 ft | 192 kts | 77° |
| 2026-05-04 17:52 | 51.12463 | -0.36062 | 2143 ft | 190 kts | 77° |
| 2026-05-04 17:52 | 51.12739 | -0.34056 | 1884 ft | 186 kts | 77° |
| 2026-05-04 17:53 | 51.13014 | -0.32061 | 1644 ft | 182 kts | 77° |
| 2026-05-04 17:53 | 51.13283 | -0.30114 | 1405 ft | 178 kts | 78° |
| 2026-05-04 17:53 | 51.13552 | -0.28204 | 1169 ft | 175 kts | 77° |
| 2026-05-04 17:53 | 51.13811 | -0.26327 | 943 ft | 172 kts | 77° |
| 2026-05-04 17:54 | 51.14058 | -0.24498 | 729 ft | 162 kts | 77° |
| 2026-05-04 17:54 | 51.14290 | -0.22830 | 509 ft | 147 kts | 78° |
| 2026-05-04 17:54 | 51.14506 | -0.21265 | 301 ft | 145 kts | 78° |
| 2026-05-04 17:54 | 51.14715 | -0.19726 | 212 ft | 138 kts | 77° |
| 2026-05-04 17:55 | 51.14905 | -0.18339 | 209 ft | 109 kts | 77° |
| 2026-05-04 17:55 | 51.15018 | -0.17536 | 214 ft | 62 kts | 77° |
| 2026-05-04 17:55 | 51.15101 | -0.16930 | 214 ft | 46 kts | 78° |
| 2026-05-04 17:55 | 51.15151 | -0.16789 | 203 ft | 10 kts | 17° |
| 2026-05-04 17:56 | 51.15196 | -0.16794 | 204 ft | 0 kts | 348° |
| 2026-05-04 17:56 | 51.15235 | -0.16806 | 208 ft | 17 kts | 348° |
| 2026-05-04 17:56 | 51.15268 | -0.16818 | 208 ft | 0 kts | 347° |
| 2026-05-04 17:57 | 51.15290 | -0.16814 | 207 ft | 6 kts | 13° |
| 2026-05-04 17:57 | 51.15310 | -0.16806 | 215 ft | 1 kts | 14° |
| 2026-05-04 17:57 | 51.15323 | -0.16801 | 215 ft | 1 kts | 13° |
| 2026-05-04 17:57 | 51.15356 | -0.16812 | 215 ft | 10 kts | 328° |
| 2026-05-04 17:58 | 51.15353 | -0.16952 | 205 ft | 17 kts | 257° |
| 2026-05-04 17:58 | 51.15333 | -0.17095 | 209 ft | 4 kts | 257° |
| 2026-05-04 17:58 | 51.15329 | -0.17120 | 213 ft | 0 kts | 257° |
| 2026-05-04 17:59 | 51.15351 | -0.17237 | 209 ft | 14 kts | 349° |
| 2026-05-04 18:00 | 51.15406 | -0.17099 | 212 ft | 18 kts | 72° |
| 2026-05-04 18:00 | 51.15439 | -0.16879 | 206 ft | 22 kts | 77° |
| 2026-05-04 18:00 | 51.15445 | -0.16653 | 205 ft | 20 kts | 81° |
| 2026-05-04 18:00 | 51.15432 | -0.16505 | 207 ft | 12 kts | 153° |
| 2026-05-04 18:01 | 51.15412 | -0.16496 | 205 ft | 7 kts | 171° |
| 2026-05-04 18:01 | 51.15397 | -0.16424 | 211 ft | 8 kts | 72° |
| 2026-05-04 18:01 | 51.15400 | -0.16403 | 211 ft | 0 kts | 79° |